Time;durP1;ratioP1;P1;durP2;ratioP2;P2;SDS_P1;SDS_P2;PMS_P1;PMS_P2;Temp;Humidity;BMP_temperature;BMP_pressure;BME280_temperature;BME280_humidity;BME280_pressure;Samples;Min_cycle;Max_cycle;Signal;HPM_P1;HPM_P2
2021/06/12 00:00:31;;;;;;;1.50;0.90;;;21.20;92.00;;;;;;5031258;28;20510;-79
2021/06/12 00:02:57;;;;;;;1.50;0.90;;;21.20;92.60;;;;;;5022760;28;20490;-80
2021/06/12 00:05:26;;;;;;;1.47;0.90;;;21.20;92.50;;;;;;5024633;28;20466;-79
2021/06/12 00:07:53;;;;;;;1.50;1.00;;;21.20;92.40;;;;;;5018380;28;20521;-80
2021/06/12 00:10:21;;;;;;;1.50;0.90;;;21.20;93.30;;;;;;5032483;28;20948;-80
2021/06/12 00:12:48;;;;;;;1.50;0.90;;;21.20;93.40;;;;;;5004865;28;20488;-78
2021/06/12 00:15:18;;;;;;;1.50;1.20;;;21.20;93.60;;;;;;5031267;28;20486;-79
2021/06/12 00:17:45;;;;;;;1.50;0.90;;;21.10;93.90;;;;;;5020484;28;20490;-79
2021/06/12 00:20:14;;;;;;;1.50;1.00;;;21.10;93.90;;;;;;5029267;28;20559;-79
2021/06/12 00:22:43;;;;;;;1.50;0.90;;;21.10;93.80;;;;;;5015701;28;20467;-79
2021/06/12 00:25:10;;;;;;;1.50;0.90;;;21.10;94.00;;;;;;5034421;28;20459;-79
2021/06/12 00:27:42;;;;;;;1.50;0.90;;;21.00;93.90;;;;;;5011378;28;20561;-79
2021/06/12 00:30:27;;;;;;;1.43;0.90;;;21.00;94.00;;;;;;5028204;28;20570;-79
2021/06/12 00:33:06;;;;;;;1.50;0.90;;;20.90;94.20;;;;;;5007595;28;20475;-79
2021/06/12 00:35:33;;;;;;;1.47;0.90;;;20.90;94.60;;;;;;5031615;28;20538;-78
2021/06/12 00:38:01;;;;;;;1.43;0.90;;;20.90;94.30;;;;;;5021974;28;20487;-79
2021/06/12 00:40:27;;;;;;;1.50;1.00;;;20.80;94.40;;;;;;5031112;28;20578;-78
2021/06/12 00:42:54;;;;;;;1.50;0.90;;;20.80;94.00;;;;;;5021393;28;20475;-78
2021/06/12 00:45:23;;;;;;;1.50;0.90;;;20.80;93.90;;;;;;5032783;28;20455;-79
2021/06/12 00:47:51;;;;;;;1.50;1.00;;;20.80;94.70;;;;;;5019774;28;20494;-78
2021/06/12 00:50:21;;;;;;;1.50;0.90;;;20.70;94.50;;;;;;5028493;28;20488;-78
2021/06/12 00:52:47;;;;;;;1.50;0.90;;;20.70;94.60;;;;;;5022308;28;20537;-78
2021/06/12 00:55:16;;;;;;;1.50;0.90;;;20.70;94.60;;;;;;5033582;28;20487;-78
2021/06/12 00:57:44;;;;;;;1.50;0.90;;;20.60;95.80;;;;;;5016182;28;20489;-78
2021/06/12 01:00:14;;;;;;;1.50;0.90;;;20.60;95.50;;;;;;5030602;28;20561;-78
2021/06/12 01:02:40;;;;;;;1.50;0.90;;;20.60;95.60;;;;;;5005067;28;20468;-80
2021/06/12 01:05:09;;;;;;;1.50;0.90;;;20.60;96.10;;;;;;5033505;28;20451;-78
2021/06/12 01:07:36;;;;;;;1.50;0.90;;;20.50;96.10;;;;;;5019066;28;20475;-78
2021/06/12 01:10:05;;;;;;;1.50;0.90;;;20.50;95.90;;;;;;5029014;28;20573;-79
2021/06/12 01:12:46;;;;;;;1.50;0.90;;;20.50;96.60;;;;;;5027699;28;21095;-79
2021/06/12 01:15:13;;;;;;;1.50;1.00;;;20.50;95.10;;;;;;5019053;28;20483;-78
2021/06/12 01:17:46;;;;;;;1.50;1.00;;;20.50;95.00;;;;;;5024116;28;20483;-77
2021/06/12 01:20:31;;;;;;;1.50;0.90;;;20.40;96.10;;;;;;5034919;28;20474;-78
2021/06/12 01:23:26;;;;;;;1.50;0.93;;;20.40;95.40;;;;;;5012360;28;20562;-78
2021/06/12 01:26:07;;;;;;;1.50;0.90;;;20.40;95.30;;;;;;5022297;28;20547;-79
2021/06/12 01:28:58;;;;;;;1.50;0.90;;;20.40;96.10;;;;;;5027066;28;20486;-78
2021/06/12 01:31:28;;;;;;;1.50;0.90;;;20.30;96.50;;;;;;5022548;28;20501;-79
2021/06/12 01:33:55;;;;;;;1.50;0.90;;;20.30;95.90;;;;;;5030982;28;20984;-78
2021/06/12 01:36:23;;;;;;;1.50;1.00;;;20.30;95.70;;;;;;5023690;28;20529;-78
2021/06/12 01:38:53;;;;;;;1.50;0.90;;;20.30;96.90;;;;;;5027521;28;20556;-78
2021/06/12 01:41:21;;;;;;;1.50;0.90;;;20.30;96.10;;;;;;5028895;28;20496;-79
2021/06/12 01:43:49;;;;;;;1.50;0.90;;;20.40;96.60;;;;;;5027466;28;20464;-78
2021/06/12 01:46:17;;;;;;;1.50;0.90;;;20.40;96.50;;;;;;5011778;28;20501;-79
2021/06/12 01:48:46;;;;;;;1.50;0.90;;;20.40;96.10;;;;;;5019539;28;20459;-78
2021/06/12 01:51:13;;;;;;;1.50;0.90;;;20.50;96.30;;;;;;5024164;28;20505;-79
2021/06/12 01:53:41;;;;;;;1.50;0.90;;;20.50;96.70;;;;;;5034509;28;20532;-79
2021/06/12 01:56:11;;;;;;;1.50;0.90;;;20.60;96.20;;;;;;5023919;28;20481;-80
2021/06/12 01:58:41;;;;;;;1.50;0.90;;;20.60;95.80;;;;;;5030507;28;20554;-78
2021/06/12 02:01:11;;;;;;;1.50;0.90;;;20.60;95.60;;;;;;5022945;28;20479;-79
2021/06/12 02:03:40;;;;;;;1.50;0.90;;;20.60;95.40;;;;;;5030478;28;20470;-79
2021/06/12 02:06:12;;;;;;;1.47;0.90;;;20.70;96.00;;;;;;5022780;28;20469;-79
2021/06/12 02:08:41;;;;;;;1.47;0.90;;;20.70;95.40;;;;;;5003086;28;20475;-78
2021/06/12 02:11:08;;;;;;;1.47;0.90;;;20.70;95.70;;;;;;5008162;28;20486;-78
2021/06/12 02:13:36;;;;;;;1.47;0.90;;;20.70;95.70;;;;;;5033164;28;20471;-79
2021/06/12 02:16:03;;;;;;;1.50;0.90;;;20.70;95.60;;;;;;5021729;28;20493;-78
2021/06/12 02:18:30;;;;;;;1.47;0.90;;;20.80;95.80;;;;;;5028718;28;20516;-79
2021/06/12 02:20:58;;;;;;;1.50;0.90;;;20.70;95.90;;;;;;5019321;28;20460;-79
2021/06/12 02:23:28;;;;;;;1.50;0.90;;;20.70;95.40;;;;;;5042646;28;20496;-78
2021/06/12 02:25:55;;;;;;;1.50;0.90;;;20.80;96.20;;;;;;5020725;28;20547;-79
2021/06/12 02:28:24;;;;;;;1.47;0.90;;;20.80;94.80;;;;;;5018160;28;20472;-78
2021/06/12 02:30:54;;;;;;;1.50;0.97;;;20.80;95.90;;;;;;5023159;28;20483;-78
2021/06/12 02:33:23;;;;;;;1.50;0.93;;;20.80;95.80;;;;;;5018500;28;20463;-78
2021/06/12 02:35:49;;;;;;;1.50;0.90;;;20.80;95.60;;;;;;5022420;28;20487;-78
2021/06/12 02:38:15;;;;;;;1.47;0.90;;;20.70;96.50;;;;;;5031992;28;20460;-79
2021/06/12 02:40:43;;;;;;;1.47;0.90;;;20.70;96.20;;;;;;5030800;28;20483;-78
2021/06/12 02:43:09;;;;;;;1.47;0.90;;;20.80;96.10;;;;;;5023244;28;20490;-78
2021/06/12 02:45:37;;;;;;;1.50;0.90;;;20.80;96.20;;;;;;5033812;28;20458;-78
2021/06/12 02:48:08;;;;;;;1.47;0.90;;;20.80;96.50;;;;;;5007202;28;20487;-78
2021/06/12 02:50:37;;;;;;;1.50;0.90;;;20.80;96.60;;;;;;5013683;28;20488;-78
2021/06/12 02:53:05;;;;;;;1.47;0.90;;;20.80;96.60;;;;;;5012674;28;20483;-77
2021/06/12 02:55:36;;;;;;;1.43;0.90;;;20.80;96.80;;;;;;5032668;28;20491;-78
2021/06/12 02:58:05;;;;;;;1.47;0.90;;;20.80;97.10;;;;;;5002396;28;20535;-78
2021/06/12 03:00:33;;;;;;;1.50;0.90;;;20.80;97.20;;;;;;5033091;28;20479;-78
2021/06/12 03:03:00;;;;;;;1.47;0.90;;;20.80;97.10;;;;;;5014955;28;20873;-80
2021/06/12 03:05:28;;;;;;;1.50;0.90;;;20.80;97.10;;;;;;5038809;28;20463;-78
2021/06/12 03:07:57;;;;;;;1.50;1.00;;;20.80;97.20;;;;;;5022007;28;20487;-80
2021/06/12 03:10:26;;;;;;;1.50;0.90;;;20.80;96.50;;;;;;5020408;28;20500;-79
2021/06/12 03:12:55;;;;;;;1.47;0.90;;;20.80;96.70;;;;;;5044858;28;20478;-80
2021/06/12 03:15:23;;;;;;;1.47;0.90;;;20.80;96.70;;;;;;5039848;28;20483;-82
2021/06/12 03:17:52;;;;;;;1.47;0.90;;;20.80;97.10;;;;;;5020935;28;20858;-81
2021/06/12 03:20:20;;;;;;;1.50;0.93;;;20.80;96.80;;;;;;5041445;28;20499;-83
2021/06/12 03:22:49;;;;;;;1.43;0.90;;;20.80;96.80;;;;;;5037677;28;20834;-79
2021/06/12 03:25:21;;;;;;;1.47;0.90;;;20.80;97.40;;;;;;5043976;28;20915;-81
2021/06/12 03:27:48;;;;;;;1.50;0.90;;;20.80;96.80;;;;;;5005871;28;20480;-80
2021/06/12 03:30:16;;;;;;;1.50;0.90;;;20.80;96.70;;;;;;5036118;28;20572;-82
2021/06/12 03:32:45;;;;;;;1.50;0.90;;;20.80;96.80;;;;;;5007439;28;20475;-81
2021/06/12 03:35:12;;;;;;;1.50;0.90;;;20.80;97.20;;;;;;5039002;28;20499;-81
2021/06/12 03:37:40;;;;;;;1.47;0.90;;;20.80;96.80;;;;;;5023760;28;20518;-79
2021/06/12 03:40:08;;;;;;;1.43;0.90;;;20.80;97.00;;;;;;5035474;28;20557;-80
2021/06/12 03:42:36;;;;;;;1.50;0.90;;;20.80;97.00;;;;;;5021618;28;20563;-80
2021/06/12 03:45:05;;;;;;;1.47;0.90;;;20.80;97.10;;;;;;5015318;28;20475;-80
2021/06/12 03:47:32;;;;;;;1.50;0.90;;;20.80;97.10;;;;;;5022518;28;20475;-80
2021/06/12 03:50:01;;;;;;;1.50;0.90;;;20.70;97.20;;;;;;5033325;28;20560;-80
2021/06/12 03:52:29;;;;;;;1.47;0.90;;;20.70;97.30;;;;;;5022452;28;20507;-80
2021/06/12 03:54:57;;;;;;;1.50;0.90;;;20.70;97.00;;;;;;5031346;28;20993;-80
2021/06/12 03:57:24;;;;;;;1.50;0.90;;;20.70;96.80;;;;;;5021068;28;20478;-79
2021/06/12 03:59:51;;;;;;;1.50;0.90;;;20.70;97.10;;;;;;5028438;28;20485;-81
2021/06/12 04:02:17;;;;;;;1.50;0.93;;;20.60;96.90;;;;;;5020017;28;20471;-79
2021/06/12 04:04:45;;;;;;;1.50;0.90;;;20.60;97.00;;;;;;5030551;28;20518;-79
2021/06/12 04:07:13;;;;;;;1.50;0.90;;;20.60;97.60;;;;;;5014943;28;20839;-79
2021/06/12 04:09:39;;;;;;;1.50;0.90;;;20.60;97.40;;;;;;5029380;28;20483;-80
2021/06/12 04:12:06;;;;;;;1.43;0.90;;;20.60;97.70;;;;;;5022751;28;21053;-80
2021/06/12 04:14:33;;;;;;;1.47;0.90;;;20.60;97.40;;;;;;5030325;28;20467;-80
2021/06/12 04:17:00;;;;;;;1.50;1.00;;;20.60;97.60;;;;;;5017821;28;20505;-79
2021/06/12 04:19:26;;;;;;;1.50;0.90;;;20.70;97.30;;;;;;5037656;28;20481;-80
2021/06/12 04:21:53;;;;;;;1.50;0.90;;;20.70;97.60;;;;;;5020065;28;20480;-80
2021/06/12 04:24:20;;;;;;;1.50;0.90;;;20.70;98.10;;;;;;5028941;28;20463;-81
2021/06/12 04:26:47;;;;;;;1.50;0.90;;;20.70;97.90;;;;;;5024435;28;20542;-80
2021/06/12 04:29:13;;;;;;;1.47;0.90;;;20.70;97.60;;;;;;5033001;28;20479;-80
2021/06/12 04:31:39;;;;;;;1.47;0.90;;;20.70;97.30;;;;;;5020504;28;20566;-80
2021/06/12 04:34:05;;;;;;;1.47;0.90;;;20.80;97.60;;;;;;5022738;28;20663;-81
2021/06/12 04:36:32;;;;;;;1.47;0.90;;;20.80;97.40;;;;;;5017570;28;20511;-79
2021/06/12 04:38:58;;;;;;;1.47;0.90;;;20.80;97.50;;;;;;5022061;28;20491;-81
2021/06/12 04:41:26;;;;;;;1.50;0.90;;;20.80;97.10;;;;;;5021930;28;20506;-79
2021/06/12 04:43:52;;;;;;;1.50;1.00;;;20.80;97.50;;;;;;5028979;28;20467;-80
2021/06/12 04:46:18;;;;;;;1.50;1.00;;;20.80;97.70;;;;;;5018896;28;20471;-79
2021/06/12 04:48:45;;;;;;;1.47;0.90;;;20.80;97.90;;;;;;5032685;28;20542;-80
2021/06/12 04:51:11;;;;;;;1.47;0.90;;;20.80;97.80;;;;;;5015770;28;20487;-79
2021/06/12 04:53:38;;;;;;;1.47;0.90;;;20.80;97.40;;;;;;5026705;28;20462;-79
2021/06/12 04:56:05;;;;;;;1.50;0.90;;;20.90;97.80;;;;;;5022422;28;20479;-79
2021/06/12 04:58:32;;;;;;;1.50;0.90;;;21.00;98.10;;;;;;5034349;28;20462;-80
2021/06/12 05:00:59;;;;;;;1.47;0.90;;;21.10;98.20;;;;;;5023659;28;20462;-79
2021/06/12 05:03:25;;;;;;;1.50;0.90;;;21.20;97.10;;;;;;5038826;28;20457;-80
2021/06/12 05:05:52;;;;;;;1.50;0.90;;;21.30;96.90;;;;;;5028997;28;20542;-80
2021/06/12 05:08:18;;;;;;;1.50;0.90;;;21.40;96.70;;;;;;5029700;28;20545;-79
2021/06/12 05:10:45;;;;;;;1.50;0.90;;;21.50;96.50;;;;;;5036136;28;20491;-80
2021/06/12 05:13:11;;;;;;;1.50;0.90;;;21.50;96.30;;;;;;5026682;28;20501;-79
2021/06/12 05:15:39;;;;;;;1.50;0.90;;;21.60;96.10;;;;;;5041785;28;20510;-81
2021/06/12 05:18:06;;;;;;;1.50;0.90;;;21.60;96.10;;;;;;5017733;28;20566;-78
2021/06/12 05:20:35;;;;;;;1.90;1.53;;;21.70;96.20;;;;;;5038872;28;20540;-82
2021/06/12 05:23:02;;;;;;;1.50;0.90;;;21.70;96.10;;;;;;5009814;28;20859;-79
2021/06/12 05:25:28;;;;;;;1.50;0.90;;;21.80;96.10;;;;;;5041390;28;20510;-79
2021/06/12 05:27:55;;;;;;;1.50;0.90;;;21.80;95.90;;;;;;5032637;28;20493;-78
2021/06/12 05:30:22;;;;;;;1.50;0.90;;;21.80;96.00;;;;;;5042163;28;20475;-81
2021/06/12 05:32:50;;;;;;;1.50;0.90;;;21.90;95.40;;;;;;5014463;28;20833;-80
2021/06/12 05:35:16;;;;;;;1.50;0.97;;;21.90;95.40;;;;;;5039740;28;20575;-80
2021/06/12 05:37:43;;;;;;;1.50;0.90;;;21.90;95.60;;;;;;5033080;28;20482;-80
2021/06/12 05:40:11;;;;;;;1.50;0.90;;;21.90;95.60;;;;;;5039962;28;20486;-80
2021/06/12 05:42:38;;;;;;;1.50;0.90;;;22.00;95.00;;;;;;5019109;28;21033;-80
2021/06/12 05:45:06;;;;;;;1.50;0.90;;;22.10;94.70;;;;;;5039969;28;20465;-80
2021/06/12 05:47:32;;;;;;;1.50;0.90;;;22.20;95.20;;;;;;5024641;28;20498;-81
2021/06/12 05:50:00;;;;;;;1.50;0.90;;;22.40;93.90;;;;;;5016719;28;20491;-81
2021/06/12 05:52:26;;;;;;;1.50;1.00;;;22.50;93.30;;;;;;5023878;28;20533;-80
2021/06/12 05:54:53;;;;;;;1.50;0.90;;;22.60;93.10;;;;;;5033743;28;20490;-78
2021/06/12 05:57:19;;;;;;;1.47;0.90;;;22.80;92.00;;;;;;5009062;28;20484;-80
2021/06/12 05:59:45;;;;;;;1.50;0.90;;;22.80;91.40;;;;;;5015873;28;20514;-81
2021/06/12 06:02:12;;;;;;;1.50;0.90;;;22.90;91.50;;;;;;5013659;28;20494;-80
2021/06/12 06:04:38;;;;;;;1.50;0.90;;;22.90;91.50;;;;;;5023296;28;20650;-80
2021/06/12 06:07:06;;;;;;;1.50;0.90;;;23.00;91.50;;;;;;5024158;28;21013;-81
2021/06/12 06:09:33;;;;;;;1.50;0.90;;;23.00;90.80;;;;;;5041067;28;20516;-81
2021/06/12 06:11:59;;;;;;;1.50;0.90;;;23.10;90.50;;;;;;5029521;28;21037;-81
2021/06/12 06:14:25;;;;;;;1.50;0.90;;;23.00;90.60;;;;;;5041720;28;20459;-82
2021/06/12 06:16:52;;;;;;;1.47;0.87;;;22.90;91.00;;;;;;5027691;28;20900;-80
2021/06/12 06:19:18;;;;;;;1.50;0.90;;;23.10;90.40;;;;;;5037525;28;20985;-83
2021/06/12 06:21:44;;;;;;;1.50;0.90;;;23.10;89.80;;;;;;5028219;28;20666;-81
2021/06/12 06:24:12;;;;;;;1.50;1.00;;;23.10;89.80;;;;;;5037543;28;20451;-82
2021/06/12 06:26:38;;;;;;;1.50;0.90;;;23.10;89.50;;;;;;5026876;28;20574;-81
2021/06/12 06:29:05;;;;;;;1.47;0.90;;;23.20;89.30;;;;;;5036717;28;20479;-82
2021/06/12 06:31:31;;;;;;;1.50;0.90;;;23.10;89.70;;;;;;5021377;28;20592;-82
2021/06/12 06:33:58;;;;;;;1.50;0.90;;;23.00;89.40;;;;;;5031572;28;20534;-83
2021/06/12 06:36:25;;;;;;;1.50;0.90;;;22.90;90.10;;;;;;5027160;28;20678;-82
2021/06/12 06:38:51;;;;;;;1.50;1.00;;;22.90;90.30;;;;;;5037510;28;20483;-81
2021/06/12 06:41:19;;;;;;;1.47;0.90;;;22.80;91.00;;;;;;5027128;28;20468;-81
2021/06/12 06:43:46;;;;;;;1.50;0.90;;;23.00;90.40;;;;;;5034776;28;20586;-82
2021/06/12 06:46:12;;;;;;;1.50;0.90;;;23.20;89.80;;;;;;5021836;28;20498;-81
2021/06/12 06:48:39;;;;;;;1.50;0.90;;;23.30;89.10;;;;;;5033767;28;20466;-82
2021/06/12 06:51:05;;;;;;;1.50;0.90;;;23.60;88.20;;;;;;5022131;28;28727;-82
2021/06/12 06:53:33;;;;;;;1.47;0.90;;;23.70;87.80;;;;;;5033237;28;20552;-80
2021/06/12 06:56:00;;;;;;;1.50;0.90;;;23.70;87.60;;;;;;5025825;28;20487;-84
2021/06/12 06:58:31;;;;;;;1.50;0.90;;;23.70;87.50;;;;;;5035627;28;20512;-82
2021/06/12 07:00:59;;;;;;;1.50;0.90;;;23.80;87.40;;;;;;5026001;28;20943;-84
2021/06/12 07:03:26;;;;;;;1.50;0.90;;;23.90;87.40;;;;;;5022193;28;20477;-81
2021/06/12 07:05:54;;;;;;;1.50;0.80;;;23.90;87.00;;;;;;5026646;28;20459;-80
2021/06/12 07:08:21;;;;;;;1.50;0.90;;;24.00;87.10;;;;;;5007712;28;20562;-81
2021/06/12 07:10:50;;;;;;;1.50;0.90;;;23.90;86.70;;;;;;5034678;28;20577;-81
2021/06/12 07:13:20;;;;;;;1.50;0.90;;;24.00;86.60;;;;;;5019988;28;20471;-83
2021/06/12 07:15:48;;;;;;;1.50;1.00;;;23.90;87.10;;;;;;5039785;28;20479;-82
2021/06/12 07:18:18;;;;;;;1.50;0.90;;;23.90;87.20;;;;;;5042340;28;21032;-81
2021/06/12 07:20:47;;;;;;;1.50;0.90;;;23.90;87.20;;;;;;5043515;28;20483;-82
2021/06/12 07:23:15;;;;;;;1.50;0.90;;;23.80;87.00;;;;;;5017745;28;20479;-79
2021/06/12 07:25:41;;;;;;;1.50;0.90;;;23.80;87.50;;;;;;5039725;28;20594;-85
2021/06/12 07:28:08;;;;;;;1.50;0.90;;;23.70;87.60;;;;;;5030380;28;20516;-83
2021/06/12 07:30:39;;;;;;;1.50;1.10;;;23.60;88.20;;;;;;5038626;28;20528;-81
2021/06/12 07:33:07;;;;;;;1.47;0.90;;;23.50;88.60;;;;;;5026176;28;20656;-84
2021/06/12 07:35:34;;;;;;;1.43;0.90;;;23.40;88.50;;;;;;5025793;28;20592;-84
2021/06/12 07:38:01;;;;;;;1.50;0.90;;;23.20;89.10;;;;;;5024174;28;20483;-83
2021/06/12 07:40:27;;;;;;;1.50;0.90;;;23.20;89.40;;;;;;5037686;28;20814;-80
2021/06/12 07:42:54;;;;;;;1.50;1.00;;;23.20;89.10;;;;;;5006005;28;20572;-83
2021/06/12 07:45:20;;;;;;;1.47;0.87;;;23.20;88.90;;;;;;5031000;28;20456;-82
2021/06/12 07:47:47;;;;;;;1.50;0.87;;;23.20;89.20;;;;;;5019391;28;20578;-82
2021/06/12 07:50:16;;;;;;;1.50;0.90;;;23.10;89.50;;;;;;5018552;28;20483;-82
2021/06/12 07:52:42;;;;;;;1.50;0.90;;;23.00;88.90;;;;;;5018271;28;20479;-83
2021/06/12 07:55:12;;;;;;;1.50;0.90;;;22.90;89.50;;;;;;5131036;22;20576;-76
2021/06/12 07:57:47;;;;;;;1.47;0.90;;;22.80;89.50;;;;;;5022157;28;20570;-76
2021/06/12 08:00:21;;;;;;;1.50;0.90;;;22.80;89.50;;;;;;5051274;28;20457;-76
2021/06/12 08:02:49;;;;;;;1.50;0.90;;;22.80;89.30;;;;;;5040842;28;20470;-76
2021/06/12 08:05:32;;;;;;;1.70;1.30;;;22.90;89.60;;;;;;5038158;28;20479;-76
2021/06/12 08:08:13;;;;;;;1.50;0.90;;;22.90;89.30;;;;;;5013412;28;20483;-78
2021/06/12 08:10:51;;;;;;;1.50;1.00;;;22.90;89.60;;;;;;5030105;28;20467;-78
2021/06/12 08:13:21;;;;;;;1.50;0.90;;;22.90;89.30;;;;;;5001099;28;20529;-76
2021/06/12 08:15:51;;;;;;;1.50;1.10;;;22.90;89.30;;;;;;5025412;28;20498;-77
2021/06/12 08:18:30;;;;;;;1.47;0.90;;;22.90;89.40;;;;;;5014041;28;20474;-78
2021/06/12 08:20:58;;;;;;;1.50;0.90;;;22.90;89.70;;;;;;5001435;28;20749;-81
2021/06/12 08:23:40;;;;;;;1.50;0.90;;;22.90;89.60;;;;;;5027973;28;20521;-78
2021/06/12 08:26:07;;;;;;;1.50;0.90;;;22.90;89.50;;;;;;5019991;28;20519;-77
2021/06/12 08:28:34;;;;;;;1.50;0.90;;;22.80;89.90;;;;;;5037037;22;20505;-78
2021/06/12 08:31:03;;;;;;;1.50;0.90;;;22.80;89.80;;;;;;5046644;28;21134;-81
2021/06/12 08:33:29;;;;;;;1.50;0.90;;;22.70;89.80;;;;;;5055616;28;20472;-81
2021/06/12 08:35:58;;;;;;;1.50;0.90;;;22.60;89.80;;;;;;5027524;28;20490;-83
2021/06/12 08:38:24;;;;;;;5.23;1.67;;;22.60;90.10;;;;;;5044917;28;20475;-82
2021/06/12 08:40:51;;;;;;;1.47;0.90;;;22.50;90.60;;;;;;5026492;28;20957;-82
2021/06/12 08:43:26;;;;;;;1.50;0.90;;;22.40;90.90;;;;;;5037620;28;20514;-83
2021/06/12 08:45:54;;;;;;;1.50;0.90;;;22.40;91.30;;;;;;5010953;28;20467;-81
2021/06/12 08:48:21;;;;;;;1.60;1.43;;;22.30;91.20;;;;;;5036975;28;20780;-81
2021/06/12 08:50:49;;;;;;;1.50;1.10;;;22.20;91.50;;;;;;5027763;28;20456;-81
2021/06/12 08:53:20;;;;;;;1.50;0.90;;;22.10;91.50;;;;;;5013326;28;20488;-83
2021/06/12 08:55:47;;;;;;;1.50;0.90;;;22.10;91.70;;;;;;5026320;28;20491;-84
2021/06/12 08:58:14;;;;;;;1.50;0.90;;;22.10;92.00;;;;;;5023640;28;20472;-81
2021/06/12 09:00:41;;;;;;;1.50;0.90;;;22.00;92.30;;;;;;5031820;28;20861;-82
2021/06/12 09:03:15;;;;;;;1.50;0.90;;;21.90;92.50;;;;;;5023519;28;20478;-82
2021/06/12 09:05:48;;;;;;;1.87;1.47;;;21.80;92.80;;;;;;5033757;28;20541;-82
2021/06/12 09:08:17;;;;;;;1.50;0.90;;;21.80;93.00;;;;;;4992895;28;21052;-84
2021/06/12 09:10:52;;;;;;;1.50;0.90;;;21.80;92.80;;;;;;5027029;28;21029;-84
2021/06/12 09:13:42;;;;;;;1.47;0.90;;;21.80;93.00;;;;;;4999367;28;20502;-81
2021/06/12 09:16:20;;;;;;;1.43;0.90;;;21.90;92.90;;;;;;5026187;28;20478;-83
2021/06/12 09:18:47;;;;;;;1.50;0.90;;;21.90;92.90;;;;;;5027191;28;20493;-82
2021/06/12 09:21:26;;;;;;;1.47;0.90;;;22.00;92.60;;;;;;5024697;28;20561;-83
2021/06/12 09:23:57;;;;;;;1.47;0.90;;;22.10;92.50;;;;;;5023320;28;20484;-83
2021/06/12 09:26:42;;;;;;;1.50;0.90;;;22.30;92.20;;;;;;5022761;28;20490;-82
2021/06/12 09:29:08;;;;;;;1.50;0.90;;;22.50;91.90;;;;;;5031942;28;21410;-83
2021/06/12 09:31:45;;;;;;;1.50;0.90;;;22.80;90.70;;;;;;5022998;28;20549;-83
2021/06/12 09:34:18;;;;;;;1.50;0.87;;;23.20;89.90;;;;;;5031422;28;20474;-84
2021/06/12 09:36:54;;;;;;;1.50;0.90;;;23.60;89.00;;;;;;5019718;28;20525;-83
2021/06/12 09:39:24;;;;;;;1.50;0.80;;;23.80;88.20;;;;;;5031339;28;20494;-82
2021/06/12 09:41:57;;;;;;;1.50;0.90;;;24.00;87.50;;;;;;5017025;28;20489;-83
2021/06/12 09:44:32;;;;;;;1.50;0.90;;;24.20;87.40;;;;;;5029074;28;20466;-84
2021/06/12 09:47:04;;;;;;;1.50;0.90;;;24.30;86.30;;;;;;5022565;28;20987;-81
2021/06/12 09:49:33;;;;;;;1.50;0.90;;;24.50;86.20;;;;;;5027237;28;21071;-82
2021/06/12 09:52:06;;;;;;;1.50;0.90;;;24.50;85.70;;;;;;5011422;28;20480;-83
2021/06/12 09:54:46;;;;;;;1.50;1.00;;;24.50;85.40;;;;;;5034031;28;20467;-83
2021/06/12 09:57:21;;;;;;;1.50;0.90;;;24.40;85.30;;;;;;5019744;28;20493;-84
2021/06/12 09:59:54;;;;;;;1.50;0.90;;;24.40;86.30;;;;;;5030319;28;20543;-83
2021/06/12 10:02:52;;;;;;;1.50;0.80;;;24.40;86.20;;;;;;5022399;28;20603;-84
2021/06/12 10:08:47;;;;;;;1.50;0.90;;;24.30;85.70;;;;;;4853949;28;20475;-82
2021/06/12 10:11:15;;;;;;;1.50;0.90;;;24.20;86.20;;;;;;5007709;28;21366;-83
2021/06/12 10:13:51;;;;;;;1.50;0.90;;;24.20;86.60;;;;;;5034808;28;20550;-84
2021/06/12 10:16:25;;;;;;;1.70;1.10;;;24.20;86.60;;;;;;5021681;28;21047;-84
2021/06/12 10:18:55;;;;;;;1.50;0.90;;;24.30;86.30;;;;;;5033965;28;20566;-82
2021/06/12 10:21:23;;;;;;;1.50;0.90;;;24.50;85.80;;;;;;5024526;28;20479;-79
2021/06/12 10:23:55;;;;;;;1.50;0.80;;;24.50;85.30;;;;;;5032549;28;20503;-84
2021/06/12 10:26:23;;;;;;;1.50;0.90;;;24.60;85.20;;;;;;5024464;28;20491;-83
2021/06/12 10:28:52;;;;;;;1.50;1.00;;;24.70;84.70;;;;;;5026269;28;20484;-81
2021/06/12 10:31:23;;;;;;;1.50;1.00;;;24.80;85.10;;;;;;5012284;28;20603;-82
2021/06/12 10:33:57;;;;;;;1.50;0.90;;;24.90;84.70;;;;;;5030868;28;20525;-80
2021/06/12 10:36:25;;;;;;;1.50;0.90;;;25.00;84.50;;;;;;5017379;28;20487;-80
2021/06/12 10:38:53;;;;;;;1.50;0.90;;;25.10;83.90;;;;;;5031469;28;20522;-79
2021/06/12 10:41:27;;;;;;;1.50;0.90;;;25.10;83.30;;;;;;5025849;28;20506;-84
2021/06/12 10:43:58;;;;;;;1.50;0.90;;;25.00;84.00;;;;;;5031125;28;20465;-80
2021/06/12 10:49:28;;;;;;;1.50;0.87;;;25.20;83.60;;;;;;5030912;28;20495;-81
2021/06/12 10:52:04;;;;;;;1.50;0.90;;;25.20;83.30;;;;;;5022385;28;20666;-82
2021/06/12 10:54:38;;;;;;;1.50;0.90;;;25.40;83.10;;;;;;5028757;28;20455;-83
2021/06/12 10:57:21;;;;;;;1.50;0.90;;;25.40;83.10;;;;;;5019229;28;20474;-84
2021/06/12 10:59:57;;;;;;;1.50;0.90;;;25.50;82.40;;;;;;5030382;28;20848;-82
2021/06/12 11:02:28;;;;;;;1.50;1.00;;;25.50;83.00;;;;;;5019259;28;20585;-81
2021/06/12 11:04:58;;;;;;;1.47;0.80;;;25.60;82.20;;;;;;5031915;28;20467;-83
2021/06/12 11:07:30;;;;;;;1.50;0.90;;;25.60;82.00;;;;;;5022113;28;20475;-85
2021/06/12 11:10:25;;;;;;;1.50;0.80;;;25.60;81.30;;;;;;5037734;28;20482;-85
2021/06/12 11:12:59;;;;;;;1.50;0.80;;;25.60;81.60;;;;;;5025466;28;20479;-83
2021/06/12 11:15:34;;;;;;;1.47;0.80;;;25.60;81.20;;;;;;5030459;28;20905;-81
2021/06/12 11:18:15;;;;;;;1.47;0.90;;;25.60;81.70;;;;;;5021370;28;20489;-83
2021/06/12 11:20:47;;;;;;;1.43;0.80;;;25.70;81.50;;;;;;5039961;28;20454;-81
2021/06/12 11:23:20;;;;;;;1.43;0.90;;;25.80;81.70;;;;;;5011286;28;20613;-82
2021/06/12 11:25:57;;;;;;;1.47;0.90;;;26.00;81.60;;;;;;5013355;28;20452;-85
2021/06/12 11:31:51;;;;;;;1.50;1.03;;;26.20;80.40;;;;;;4922729;29;20480;-81
2021/06/12 11:34:30;;;;;;;1.43;0.80;;;26.20;80.20;;;;;;4908248;28;20476;-81
2021/06/12 11:37:22;;;;;;;1.50;0.90;;;26.20;80.30;;;;;;4982067;28;20477;-80
2021/06/12 11:40:01;;;;;;;;;;;;;;;;;;;;;
2021/06/12 11:49:51;;;;;;;1.47;0.90;;;25.90;79.90;;;;;;4971413;28;20825;-82
2021/06/12 11:55:56;;;;;;;1.50;0.87;;;26.30;79.70;;;;;;5017684;28;20544;-84
2021/06/12 12:01:03;;;;;;;1.47;0.80;;;26.70;78.60;;;;;;5072669;22;20476;-81
2021/06/12 12:03:30;;;;;;;2.50;2.30;;;26.90;77.30;;;;;;5026721;28;20455;-81
2021/06/12 12:06:00;;;;;;;1.50;0.80;;;27.20;76.80;;;;;;5024429;28;20892;-84
2021/06/12 12:08:33;;;;;;;1.50;0.90;;;27.50;75.10;;;;;;5023655;28;20522;-80
2021/06/12 12:18:02;;;;;;;1.50;0.80;;;27.60;74.20;;;;;;4912394;29;20495;-83
2021/06/12 12:20:47;;;;;;;1.50;0.90;;;27.30;74.20;;;;;;4941125;29;21073;-84
2021/06/12 12:23:55;;;;;;;1.50;0.87;;;27.00;74.30;;;;;;4938961;28;20491;-83
2021/06/12 12:27:03;;;;;;;;;;;;;;;;;;;;;
2021/06/12 12:29:39;;;;;;;1.50;0.80;;;26.30;75.50;;;;;;5033498;28;20540;-84
2021/06/12 12:32:08;;;;;;;1.60;1.20;;;26.10;76.90;;;;;;5019148;28;20935;-85
2021/06/12 12:34:42;;;;;;;1.47;0.90;;;26.10;77.60;;;;;;5033362;28;20459;-81
2021/06/12 12:37:21;;;;;;;1.50;0.87;;;26.10;77.30;;;;;;5025081;28;20576;-83
2021/06/12 12:39:54;;;;;;;1.50;0.90;;;26.10;76.70;;;;;;5023182;28;20912;-82
2021/06/12 12:42:24;;;;;;;2.07;1.87;;;26.00;76.80;;;;;;5012172;28;20552;-82
2021/06/12 12:44:53;;;;;;;1.50;0.90;;;26.00;77.10;;;;;;5030298;28;20463;-81
2021/06/12 12:47:27;;;;;;;1.43;0.80;;;26.00;77.30;;;;;;5013619;28;20498;-80
2021/06/12 12:49:55;;;;;;;1.50;0.90;;;26.00;77.60;;;;;;5027573;28;20499;-82
2021/06/12 12:52:39;;;;;;;1.60;1.00;;;25.80;77.50;;;;;;5015323;28;20478;-82
2021/06/12 12:55:39;;;;;;;1.50;1.00;;;25.70;77.60;;;;;;5029745;28;20463;-81
2021/06/12 12:58:07;;;;;;;1.50;0.90;;;25.70;77.80;;;;;;5015223;28;20574;-82
2021/06/12 13:00:35;;;;;;;1.47;0.90;;;25.80;77.30;;;;;;5031892;28;20473;-81
2021/06/12 13:03:55;;;;;;;1.50;0.90;;;26.10;75.50;;;;;;5031348;28;20478;-80
2021/06/12 13:06:33;;;;;;;1.50;0.80;;;26.40;76.00;;;;;;5013773;28;20920;-79
2021/06/12 13:09:10;;;;;;;1.50;0.90;;;26.80;74.70;;;;;;5025361;28;20485;-79
2021/06/12 13:11:44;;;;;;;1.50;0.90;;;27.10;71.60;;;;;;5018832;28;20474;-81
2021/06/12 13:14:23;;;;;;;1.50;0.90;;;27.00;70.10;;;;;;5029041;28;20489;-81
2021/06/12 13:17:01;;;;;;;1.50;0.90;;;26.80;70.00;;;;;;5017987;28;20552;-83
2021/06/12 13:19:40;;;;;;;1.50;0.90;;;26.80;70.90;;;;;;5032067;28;20569;-80
2021/06/12 13:22:10;;;;;;;1.47;0.87;;;27.00;71.50;;;;;;5024576;28;20482;-83
2021/06/12 13:25:13;;;;;;;1.50;0.90;;;27.10;69.70;;;;;;5025237;28;20460;-80
2021/06/12 13:27:43;;;;;;;1.60;1.20;;;27.00;68.20;;;;;;4941092;29;20473;-81
2021/06/12 13:30:37;;;;;;;1.50;0.90;;;27.20;70.10;;;;;;4950466;28;20747;-82
2021/06/12 13:33:09;;;;;;;1.50;0.90;;;27.50;68.10;;;;;;4992921;28;20486;-81
2021/06/12 13:35:45;;;;;;;1.63;0.97;;;27.60;67.90;;;;;;5028722;28;20949;-82